Time;durP1;ratioP1;P1;durP2;ratioP2;P2;SDS_P1;SDS_P2;PMS_P1;PMS_P2;Temp;Humidity;BMP_temperature;BMP_pressure;BME280_temperature;BME280_humidity;BME280_pressure;Samples;Min_cycle;Max_cycle;Signal;HPM_P1;HPM_P2
2022/03/07 12:09:43;;;;;;;5.38;4.88;;;;;;;;;;530042;27;20522;-75
2022/03/07 12:10:07;;;;;;;5.30;4.80;;;;;;;;;;529248;28;1526;-75
2022/03/07 12:10:22;;;;;;;5.90;4.85;;;;;;;;;;529345;28;807;-75
2022/03/07 12:11:02;;;;;;;5.68;5.07;;;;;;;;;;525408;28;1334;-75
2022/03/07 12:11:32;;;;;;;5.50;4.97;;;;;;;;;;522308;28;942;-74
2022/03/07 12:11:56;;;;;;;5.50;4.90;;;;;;;;;;521026;28;1506;-75
2022/03/07 12:12:15;;;;;;;5.70;5.13;;;;;;;;;;523131;28;890;-75
2022/03/07 12:12:30;;;;;;;5.50;5.00;;;;;;;;;;524306;28;842;-75
2022/03/07 12:12:46;;;;;;;5.50;5.00;;;;;;;;;;525089;28;677;-75
2022/03/07 12:13:06;;;;;;;5.30;4.80;;;;;;;;;;525541;28;688;-74
2022/03/07 12:13:22;;;;;;;5.28;4.70;;;;;;;;;;525367;28;1428;-75
2022/03/07 12:13:50;;;;;;;5.30;4.80;;;;;;;;;;523876;28;1184;-75
2022/03/07 12:14:09;;;;;;;5.80;5.20;;;;;;;;;;525310;28;810;-75
2022/03/07 12:14:29;;;;;;;5.50;5.00;;;;;;;;;;525597;28;755;-75
2022/03/07 12:14:45;;;;;;;5.47;4.97;;;;;;;;;;524678;28;779;-74
2022/03/07 12:15:10;;;;;;;5.30;4.80;;;;;;;;;;522961;28;1266;-74
2022/03/07 12:15:25;;;;;;;5.97;4.95;;;;;;;;;;525366;28;783;-75
2022/03/07 12:15:55;;;;;;;5.85;5.25;;;;;;;;;;527511;28;854;-75
2022/03/07 12:16:12;;;;;;;5.43;4.90;;;;;;;;;;527500;28;914;-75
2022/03/07 12:16:30;;;;;;;5.80;5.20;;;;;;;;;;527567;28;752;-74
2022/03/07 12:16:45;;;;;;;5.68;5.18;;;;;;;;;;527235;28;1259;-75
2022/03/07 12:17:10;;;;;;;5.30;4.80;;;;;;;;;;529550;28;874;-75
2022/03/07 12:17:27;;;;;;;5.50;5.00;;;;;;;;;;529924;28;700;-75
2022/03/07 12:17:50;;;;;;;5.32;4.88;;;;;;;;;;527552;28;834;-75
2022/03/07 12:18:07;;;;;;;5.68;5.15;;;;;;;;;;527062;28;929;-74
2022/03/07 12:18:24;;;;;;;5.60;5.10;;;;;;;;;;527718;28;759;-75
2022/03/07 12:18:39;;;;;;;5.75;5.10;;;;;;;;;;527349;28;759;-75
2022/03/07 12:19:16;;;;;;;6.07;5.30;;;;;;;;;;525049;28;1123;-74
2022/03/07 12:19:31;;;;;;;5.95;5.07;;;;;;;;;;525195;28;951;-75
2022/03/07 12:19:54;;;;;;;6.53;5.00;;;;;;;;;;528836;28;792;-75
2022/03/07 12:20:09;;;;;;;5.75;5.10;;;;;;;;;;529160;28;767;-75
2022/03/07 12:20:25;;;;;;;5.53;5.03;;;;;;;;;;529923;28;827;-75
2022/03/07 12:21:00;;;;;;;5.70;5.10;;;;;;;;;;529754;28;917;-75
2022/03/07 12:21:24;;;;;;;5.38;4.88;;;;;;;;;;527079;28;705;-75
2022/03/07 12:21:42;;;;;;;5.50;5.00;;;;;;;;;;527453;28;815;-75
2022/03/07 12:21:57;;;;;;;5.78;5.13;;;;;;;;;;524558;28;1343;-74
2022/03/07 12:22:15;;;;;;;5.90;5.30;;;;;;;;;;523163;28;1230;-75
2022/03/07 12:22:32;;;;;;;6.13;5.53;;;;;;;;;;525451;28;779;-74
2022/03/07 12:22:48;;;;;;;6.15;5.55;;;;;;;;;;523271;28;1075;-74
2022/03/07 12:23:04;;;;;;;5.60;5.10;;;;;;;;;;522999;28;1528;-74
2022/03/07 12:23:25;;;;;;;5.45;4.95;;;;;;;;;;522318;28;1516;-74
2022/03/07 12:23:41;;;;;;;5.63;5.13;;;;;;;;;;521566;28;1171;-74
2022/03/07 12:23:56;;;;;;;5.60;5.10;;;;;;;;;;524590;28;1389;-74
2022/03/07 12:24:16;;;;;;;6.23;5.13;;;;;;;;;;523122;28;1472;-74
2022/03/07 12:24:31;;;;;;;6.72;5.15;;;;;;;;;;520590;28;1258;-75
2022/03/07 12:24:47;;;;;;;6.03;5.40;;;;;;;;;;522220;28;1445;-75
2022/03/07 12:25:06;;;;;;;5.75;5.25;;;;;;;;;;525686;28;1356;-75
2022/03/07 12:25:21;;;;;;;5.35;4.85;;;;;;;;;;527581;28;930;-75
2022/03/07 12:25:36;;;;;;;5.67;5.13;;;;;;;;;;527037;28;1376;-75
2022/03/07 12:26:02;;;;;;;5.87;5.20;;;;;;;;;;524091;28;1465;-75
2022/03/07 12:26:17;;;;;;;5.82;5.10;;;;;;;;;;522545;28;943;-75
2022/03/07 12:26:42;;;;;;;5.97;5.03;;;;;;;;;;523209;28;792;-75
2022/03/07 12:26:58;;;;;;;6.72;5.40;;;;;;;;;;525073;28;932;-75
2022/03/07 12:27:13;;;;;;;6.55;5.32;;;;;;;;;;525047;28;709;-75
2022/03/07 12:27:30;;;;;;;6.13;5.13;;;;;;;;;;523614;28;1640;-75
2022/03/07 12:27:55;;;;;;;5.57;5.00;;;;;;;;;;526296;28;1394;-75
2022/03/07 12:28:11;;;;;;;5.88;4.90;;;;;;;;;;527326;28;847;-75
2022/03/07 12:28:32;;;;;;;6.67;5.20;;;;;;;;;;526829;28;815;-75
2022/03/07 12:28:48;;;;;;;7.43;5.50;;;;;;;;;;527372;28;701;-75
2022/03/07 12:29:04;;;;;;;6.90;5.20;;;;;;;;;;524476;28;1091;-75
2022/03/07 12:29:22;;;;;;;5.55;4.93;;;;;;;;;;525077;28;1563;-75
2022/03/07 12:29:43;;;;;;;5.45;4.80;;;;;;;;;;526037;28;910;-75
2022/03/07 12:29:58;;;;;;;5.75;4.90;;;;;;;;;;526327;28;968;-75
2022/03/07 12:30:13;;;;;;;7.80;5.10;;;;;;;;;;527261;28;739;-75
2022/03/07 12:30:28;;;;;;;9.00;5.00;;;;;;;;;;524728;28;1290;-74
2022/03/07 12:30:44;;;;;;;6.95;4.90;;;;;;;;;;525530;28;794;-75
2022/03/07 12:31:01;;;;;;;5.33;4.83;;;;;;;;;;525337;28;760;-75
2022/03/07 12:31:16;;;;;;;5.40;4.90;;;;;;;;;;526538;28;768;-75
2022/03/07 12:31:32;;;;;;;5.70;4.93;;;;;;;;;;526498;28;1401;-75
2022/03/07 12:31:55;;;;;;;6.23;4.87;;;;;;;;;;526487;28;1253;-75
2022/03/07 12:32:11;;;;;;;6.72;4.95;;;;;;;;;;526676;28;1400;-75
2022/03/07 12:32:27;;;;;;;6.38;4.88;;;;;;;;;;528717;28;1342;-74
2022/03/07 12:32:42;;;;;;;5.57;4.70;;;;;;;;;;526245;28;1388;-74
2022/03/07 12:32:57;;;;;;;5.43;4.57;;;;;;;;;;527381;28;780;-75
2022/03/07 12:33:12;;;;;;;5.57;4.70;;;;;;;;;;527507;28;732;-74
2022/03/07 12:33:29;;;;;;;5.70;4.70;;;;;;;;;;525267;28;1408;-75
2022/03/07 12:33:45;;;;;;;5.75;4.80;;;;;;;;;;523248;28;1195;-74
2022/03/07 12:34:01;;;;;;;5.78;4.93;;;;;;;;;;521005;28;1478;-74
2022/03/07 12:34:26;;;;;;;5.73;4.90;;;;;;;;;;521016;28;1167;-75
2022/03/07 12:34:41;;;;;;;5.40;4.90;;;;;;;;;;523568;28;733;-74
2022/03/07 12:34:57;;;;;;;5.50;5.00;;;;;;;;;;524924;28;801;-74
2022/03/07 12:35:17;;;;;;;6.50;5.20;;;;;;;;;;522910;28;1510;-75
2022/03/07 12:35:32;;;;;;;5.82;4.90;;;;;;;;;;525294;28;1230;-74
2022/03/07 12:35:47;;;;;;;5.65;5.03;;;;;;;;;;525443;28;777;-75
2022/03/07 12:36:09;;;;;;;5.50;5.00;;;;;;;;;;525238;28;1394;-74
2022/03/07 12:36:25;;;;;;;5.40;4.95;;;;;;;;;;523377;28;851;-75
2022/03/07 12:36:40;;;;;;;5.50;5.00;;;;;;;;;;522417;28;681;-75
2022/03/07 12:37:01;;;;;;;5.40;4.90;;;;;;;;;;522740;28;776;-75
2022/03/07 12:37:20;;;;;;;5.22;4.82;;;;;;;;;;525108;28;776;-75
2022/03/07 12:37:37;;;;;;;5.20;4.70;;;;;;;;;;527485;28;815;-75
2022/03/07 12:37:56;;;;;;;5.63;5.00;;;;;;;;;;527927;28;748;-75
2022/03/07 12:38:12;;;;;;;5.30;4.80;;;;;;;;;;529520;28;977;-75
2022/03/07 12:38:27;;;;;;;5.17;4.67;;;;;;;;;;527566;28;807;-76
2022/03/07 12:38:50;;;;;;;5.75;4.78;;;;;;;;;;526827;28;1538;-75
2022/03/07 12:39:06;;;;;;;6.88;5.10;;;;;;;;;;526409;28;1968;-75
2022/03/07 12:39:21;;;;;;;6.67;5.03;;;;;;;;;;527007;28;1424;-75
2022/03/07 12:39:55;;;;;;;6.35;4.93;;;;;;;;;;525636;28;1316;-75
2022/03/07 12:40:11;;;;;;;5.50;5.00;;;;;;;;;;526359;28;1467;-75
2022/03/07 12:40:27;;;;;;;5.45;4.95;;;;;;;;;;525321;28;1217;-75
2022/03/07 12:40:42;;;;;;;5.65;5.10;;;;;;;;;;527299;28;743;-74
2022/03/07 12:40:59;;;;;;;5.73;5.13;;;;;;;;;;526949;28;930;-76
2022/03/07 12:41:17;;;;;;;5.82;5.22;;;;;;;;;;525770;28;1551;-75
2022/03/07 12:41:36;;;;;;;5.68;5.07;;;;;;;;;;527309;28;1306;-75
2022/03/07 12:41:51;;;;;;;5.57;5.00;;;;;;;;;;525350;28;1513;-75
2022/03/07 12:42:07;;;;;;;5.70;5.07;;;;;;;;;;525737;28;829;-75
2022/03/07 12:42:24;;;;;;;5.83;5.20;;;;;;;;;;527257;28;822;-75
2022/03/07 12:42:42;;;;;;;6.15;5.28;;;;;;;;;;525178;28;1211;-75
2022/03/07 12:42:58;;;;;;;5.85;5.00;;;;;;;;;;524920;28;835;-75
2022/03/07 12:43:14;;;;;;;5.60;5.00;;;;;;;;;;525546;28;824;-75
2022/03/07 12:43:29;;;;;;;5.63;5.07;;;;;;;;;;525331;28;1022;-75
2022/03/07 12:43:50;;;;;;;6.23;5.10;;;;;;;;;;524466;28;760;-75
2022/03/07 12:44:05;;;;;;;5.70;5.00;;;;;;;;;;525307;28;1467;-75
2022/03/07 12:44:23;;;;;;;5.60;5.00;;;;;;;;;;525417;28;1333;-75
2022/03/07 12:44:39;;;;;;;5.70;5.20;;;;;;;;;;526579;28;945;-75
2022/03/07 12:44:59;;;;;;;5.60;5.10;;;;;;;;;;527104;28;779;-77
2022/03/07 12:45:18;;;;;;;5.55;5.05;;;;;;;;;;524977;28;881;-75
2022/03/07 12:45:44;;;;;;;5.50;5.00;;;;;;;;;;522833;28;850;-75
2022/03/07 12:46:00;;;;;;;6.22;5.10;;;;;;;;;;520279;28;1407;-75
2022/03/07 12:46:16;;;;;;;6.47;4.93;;;;;;;;;;521567;28;1140;-75
2022/03/07 12:46:31;;;;;;;6.73;4.80;;;;;;;;;;521855;28;1394;-74
2022/03/07 12:46:46;;;;;;;6.15;4.80;;;;;;;;;;521854;28;1381;-75
2022/03/07 12:47:02;;;;;;;5.63;4.90;;;;;;;;;;520500;28;674;-75
2022/03/07 12:47:24;;;;;;;5.27;4.63;;;;;;;;;;522801;28;748;-75
2022/03/07 12:47:40;;;;;;;5.40;4.72;;;;;;;;;;522978;28;775;-75
2022/03/07 12:47:55;;;;;;;5.43;4.70;;;;;;;;;;522244;28;1235;-75
2022/03/07 12:48:10;;;;;;;5.57;4.95;;;;;;;;;;523297;28;1394;-75
2022/03/07 12:48:43;;;;;;;5.77;5.03;;;;;;;;;;525366;28;1385;-74
2022/03/07 12:48:59;;;;;;;5.30;4.80;;;;;;;;;;525820;28;1296;-75
2022/03/07 12:49:17;;;;;;;6.78;4.90;;;;;;;;;;525507;28;1633;-74
2022/03/07 12:49:33;;;;;;;7.00;5.00;;;;;;;;;;523872;28;1047;-75
2022/03/07 12:49:49;;;;;;;5.95;4.93;;;;;;;;;;524887;28;1424;-75
2022/03/07 12:50:07;;;;;;;5.85;5.25;;;;;;;;;;526977;28;926;-74
2022/03/07 12:50:26;;;;;;;5.97;5.30;;;;;;;;;;527312;28;866;-74
2022/03/07 12:50:41;;;;;;;5.85;5.15;;;;;;;;;;527329;28;1705;-74
2022/03/07 12:51:07;;;;;;;5.73;5.10;;;;;;;;;;527421;28;747;-74
2022/03/07 12:51:23;;;;;;;6.63;5.47;;;;;;;;;;521796;28;1154;-74
2022/03/07 12:51:39;;;;;;;7.10;5.25;;;;;;;;;;524448;28;1221;-74
2022/03/07 12:51:54;;;;;;;6.30;5.00;;;;;;;;;;523160;28;1166;-75
2022/03/07 12:52:09;;;;;;;5.97;5.15;;;;;;;;;;523436;28;764;-74
2022/03/07 12:52:36;;;;;;;6.10;5.43;;;;;;;;;;521119;28;1269;-74
2022/03/07 12:52:51;;;;;;;6.40;5.22;;;;;;;;;;520648;28;772;-75
2022/03/07 12:53:13;;;;;;;6.77;5.20;;;;;;;;;;521268;28;986;-74
2022/03/07 12:53:28;;;;;;;5.90;5.30;;;;;;;;;;521284;28;875;-74
2022/03/07 12:53:46;;;;;;;6.00;5.40;;;;;;;;;;524027;28;1001;-74
2022/03/07 12:54:02;;;;;;;6.10;5.50;;;;;;;;;;527044;28;775;-74
2022/03/07 12:54:27;;;;;;;6.15;5.43;;;;;;;;;;528611;28;732;-74
2022/03/07 12:54:42;;;;;;;5.75;5.20;;;;;;;;;;527064;28;903;-74
2022/03/07 12:54:59;;;;;;;5.80;5.20;;;;;;;;;;527384;28;910;-75
2022/03/07 12:55:16;;;;;;;6.18;5.15;;;;;;;;;;527321;28;768;-74
2022/03/07 12:55:31;;;;;;;6.70;5.20;;;;;;;;;;524621;28;774;-74
2022/03/07 12:55:47;;;;;;;6.17;5.37;;;;;;;;;;525254;28;854;-74
2022/03/07 12:56:03;;;;;;;5.97;5.22;;;;;;;;;;525202;28;807;-74
2022/03/07 12:56:21;;;;;;;6.10;5.07;;;;;;;;;;525315;28;922;-76
2022/03/07 12:56:40;;;;;;;5.97;5.15;;;;;;;;;;526526;28;672;-75
2022/03/07 12:56:56;;;;;;;6.82;5.45;;;;;;;;;;524885;28;1947;-75
2022/03/07 12:57:16;;;;;;;6.95;5.40;;;;;;;;;;525378;28;957;-74
2022/03/07 12:57:31;;;;;;;6.00;5.40;;;;;;;;;;524917;28;887;-75
2022/03/07 12:57:53;;;;;;;6.10;5.50;;;;;;;;;;523168;28;1139;-75
2022/03/07 12:58:08;;;;;;;6.68;5.45;;;;;;;;;;523034;28;930;-75
2022/03/07 12:58:24;;;;;;;6.72;5.55;;;;;;;;;;523199;28;1385;-75
2022/03/07 12:58:47;;;;;;;7.60;5.60;;;;;;;;;;521098;28;1366;-75
2022/03/07 12:59:03;;;;;;;6.60;5.63;;;;;;;;;;518555;28;823;-75
2022/03/07 12:59:27;;;;;;;5.90;5.30;;;;;;;;;;519063;28;887;-75
2022/03/07 12:59:43;;;;;;;5.90;5.40;;;;;;;;;;517508;28;1235;-74
2022/03/07 13:00:13;;;;;;;6.05;5.40;;;;;;;;;;519205;28;796;-75
2022/03/07 13:00:30;;;;;;;6.22;5.63;;;;;;;;;;520593;28;831;-74
2022/03/07 13:00:45;;;;;;;6.15;5.55;;;;;;;;;;523280;28;851;-74
2022/03/07 13:01:02;;;;;;;6.13;5.53;;;;;;;;;;524846;28;848;-74
2022/03/07 13:01:21;;;;;;;6.13;5.53;;;;;;;;;;524972;28;747;-75
2022/03/07 13:01:46;;;;;;;6.20;5.60;;;;;;;;;;523847;28;912;-75
2022/03/07 13:02:04;;;;;;;5.97;5.35;;;;;;;;;;524887;28;1055;-75
2022/03/07 13:02:20;;;;;;;6.63;5.50;;;;;;;;;;525422;28;899;-75
2022/03/07 13:02:41;;;;;;;6.40;5.60;;;;;;;;;;527598;28;732;-75
2022/03/07 13:02:58;;;;;;;6.20;5.38;;;;;;;;;;525145;28;1594;-75
2022/03/07 13:03:13;;;;;;;5.90;5.30;;;;;;;;;;525357;28;764;-75
2022/03/07 13:03:35;;;;;;;6.60;5.38;;;;;;;;;;525328;28;973;-75
2022/03/07 13:03:52;;;;;;;6.18;5.55;;;;;;;;;;524808;28;823;-77
2022/03/07 13:04:18;;;;;;;6.20;5.60;;;;;;;;;;525145;28;835;-75
2022/03/07 13:04:33;;;;;;;6.00;5.40;;;;;;;;;;524745;28;828;-75
2022/03/07 13:04:55;;;;;;;6.13;5.53;;;;;;;;;;525947;28;736;-77
2022/03/07 13:05:16;;;;;;;5.70;5.13;;;;;;;;;;527057;28;889;-76
2022/03/07 13:05:31;;;;;;;6.75;5.00;;;;;;;;;;527418;28;854;-77
2022/03/07 13:05:47;;;;;;;7.97;5.18;;;;;;;;;;527194;28;771;-77
2022/03/07 13:06:02;;;;;;;7.33;5.40;;;;;;;;;;527081;28;703;-77
2022/03/07 13:06:22;;;;;;;7.75;5.47;;;;;;;;;;525106;28;1186;-75
2022/03/07 13:06:40;;;;;;;6.55;5.65;;;;;;;;;;523108;28;938;-75
2022/03/07 13:06:56;;;;;;;6.20;5.60;;;;;;;;;;522143;28;1544;-75
2022/03/07 13:07:12;;;;;;;6.03;5.47;;;;;;;;;;523303;28;835;-75
2022/03/07 13:07:28;;;;;;;6.20;5.60;;;;;;;;;;523041;28;788;-75
2022/03/07 13:07:57;;;;;;;6.20;5.60;;;;;;;;;;523179;28;697;-74
2022/03/07 13:08:13;;;;;;;6.28;5.57;;;;;;;;;;522385;28;966;-75
2022/03/07 13:08:28;;;;;;;6.50;5.50;;;;;;;;;;523986;28;922;-75
2022/03/07 13:08:45;;;;;;;6.10;5.50;;;;;;;;;;526491;28;998;-75
2022/03/07 13:09:02;;;;;;;6.55;5.68;;;;;;;;;;527464;28;973;-74
2022/03/07 13:09:20;;;;;;;6.30;5.70;;;;;;;;;;527652;28;787;-75
2022/03/07 13:09:35;;;;;;;6.18;5.57;;;;;;;;;;526945;28;1427;-74
2022/03/07 13:09:51;;;;;;;6.65;5.78;;;;;;;;;;527670;28;763;-77
2022/03/07 13:10:11;;;;;;;6.60;5.90;;;;;;;;;;525780;28;1385;-75
2022/03/07 13:10:27;;;;;;;6.30;5.70;;;;;;;;;;527385;28;1587;-75
2022/03/07 13:10:49;;;;;;;6.20;5.50;;;;;;;;;;526658;28;1583;-75
2022/03/07 13:11:04;;;;;;;7.45;5.68;;;;;;;;;;525677;28;727;-75
2022/03/07 13:11:38;;;;;;;7.07;5.80;;;;;;;;;;525508;28;2949;-74
2022/03/07 13:11:54;;;;;;;7.00;5.90;;;;;;;;;;523566;28;923;-74
2022/03/07 13:12:10;;;;;;;7.70;5.80;;;;;;;;;;522353;28;1985;-75
2022/03/07 13:12:25;;;;;;;7.57;5.70;;;;;;;;;;522733;28;760;-74
2022/03/07 13:12:40;;;;;;;6.47;5.65;;;;;;;;;;520229;28;1412;-74
2022/03/07 13:12:58;;;;;;;6.47;5.63;;;;;;;;;;521380;28;1211;-74
2022/03/07 13:13:13;;;;;;;6.40;5.68;;;;;;;;;;520711;28;780;-74
2022/03/07 13:13:40;;;;;;;6.50;5.80;;;;;;;;;;519642;28;848;-75
2022/03/07 13:13:55;;;;;;;6.47;5.82;;;;;;;;;;519686;28;1025;-74
2022/03/07 13:14:19;;;;;;;6.35;5.55;;;;;;;;;;520121;28;951;-75
2022/03/07 13:14:36;;;;;;;6.32;5.70;;;;;;;;;;522097;28;1283;-74
2022/03/07 13:14:59;;;;;;;7.00;5.80;;;;;;;;;;523952;28;1351;-75
2022/03/07 13:15:14;;;;;;;6.55;5.90;;;;;;;;;;524253;28;994;-76
2022/03/07 13:15:39;;;;;;;6.87;5.83;;;;;;;;;;521384;28;1421;-76
2022/03/07 13:15:54;;;;;;;6.68;5.78;;;;;;;;;;521810;28;887;-76
2022/03/07 13:16:10;;;;;;;6.30;5.70;;;;;;;;;;521781;28;817;-75
2022/03/07 13:16:28;;;;;;;6.50;5.80;;;;;;;;;;521562;28;733;-76
2022/03/07 13:16:43;;;;;;;6.60;5.75;;;;;;;;;;521505;28;879;-75
2022/03/07 13:17:12;;;;;;;6.22;5.63;;;;;;;;;;519546;28;1259;-75
2022/03/07 13:17:28;;;;;;;6.40;5.80;;;;;;;;;;521194;28;948;-76
2022/03/07 13:17:43;;;;;;;6.70;5.80;;;;;;;;;;521825;28;851;-76
2022/03/07 13:18:04;;;;;;;6.28;5.68;;;;;;;;;;521677;28;898;-76
2022/03/07 13:18:21;;;;;;;6.40;5.80;;;;;;;;;;521463;28;871;-75
2022/03/07 13:18:36;;;;;;;7.00;5.80;;;;;;;;;;519423;28;1272;-76
2022/03/07 13:19:06;;;;;;;7.00;5.80;;;;;;;;;;518473;28;1183;-75
2022/03/07 13:19:23;;;;;;;6.38;5.78;;;;;;;;;;519573;28;1255;-75
2022/03/07 13:19:42;;;;;;;6.00;5.47;;;;;;;;;;519008;28;1483;-76
2022/03/07 13:19:58;;;;;;;6.05;5.55;;;;;;;;;;518615;28;1208;-75
2022/03/07 13:20:23;;;;;;;6.75;5.60;;;;;;;;;;517817;28;1029;-75
2022/03/07 13:20:39;;;;;;;6.38;5.70;;;;;;;;;;521585;28;950;-75
2022/03/07 13:20:54;;;;;;;6.28;5.68;;;;;;;;;;521776;28;853;-76
2022/03/07 13:21:10;;;;;;;6.10;5.60;;;;;;;;;;522271;28;780;-76
2022/03/07 13:21:26;;;;;;;6.40;5.80;;;;;;;;;;523825;28;910;-76
2022/03/07 13:21:45;;;;;;;6.75;5.80;;;;;;;;;;526207;28;981;-75
2022/03/07 13:22:01;;;;;;;6.47;5.75;;;;;;;;;;523724;28;1265;-75
2022/03/07 13:22:16;;;;;;;6.53;5.88;;;;;;;;;;521634;28;1343;-75
2022/03/07 13:22:32;;;;;;;6.63;5.93;;;;;;;;;;521501;28;725;-76
2022/03/07 13:22:47;;;;;;;6.47;5.88;;;;;;;;;;519804;28;1357;-76
2022/03/07 13:23:05;;;;;;;6.47;5.87;;;;;;;;;;519563;28;855;-76
2022/03/07 13:23:27;;;;;;;6.75;6.15;;;;;;;;;;518347;28;922;-75
2022/03/07 13:23:42;;;;;;;6.70;6.10;;;;;;;;;;516415;28;851;-76
2022/03/07 13:23:58;;;;;;;6.57;5.97;;;;;;;;;;519796;28;1187;-76
2022/03/07 13:24:17;;;;;;;6.65;6.05;;;;;;;;;;521335;28;792;-75
2022/03/07 13:24:34;;;;;;;6.80;6.10;;;;;;;;;;519023;28;1376;-76
2022/03/07 13:24:51;;;;;;;7.28;6.13;;;;;;;;;;521497;28;793;-75
2022/03/07 13:25:07;;;;;;;6.82;6.10;;;;;;;;;;521625;28;1085;-76
2022/03/07 13:25:22;;;;;;;6.65;5.88;;;;;;;;;;519568;28;1169;-76
2022/03/07 13:25:43;;;;;;;7.13;6.05;;;;;;;;;;519685;28;1262;-75
2022/03/07 13:25:59;;;;;;;6.93;6.22;;;;;;;;;;521549;28;781;-76
2022/03/07 13:26:21;;;;;;;7.18;6.05;;;;;;;;;;519449;28;1279;-76
2022/03/07 13:26:36;;;;;;;7.00;5.90;;;;;;;;;;521540;28;862;-75
2022/03/07 13:27:07;;;;;;;7.17;5.90;;;;;;;;;;519309;28;1180;-76
2022/03/07 13:27:23;;;;;;;6.72;6.03;;;;;;;;;;521585;28;978;-76
2022/03/07 13:27:46;;;;;;;6.95;6.10;;;;;;;;;;521749;28;895;-76
2022/03/07 13:28:02;;;;;;;6.88;6.18;;;;;;;;;;522164;28;890;-75
2022/03/07 13:28:29;;;;;;;6.93;6.22;;;;;;;;;;524014;28;737;-76
2022/03/07 13:28:44;;;;;;;7.00;6.30;;;;;;;;;;524013;28;1033;-76
2022/03/07 13:29:13;;;;;;;6.63;6.03;;;;;;;;;;525690;28;1005;-76
2022/03/07 13:29:31;;;;;;;6.78;6.07;;;;;;;;;;523557;28;1262;-76
2022/03/07 13:29:46;;;;;;;6.55;5.95;;;;;;;;;;521547;28;1371;-75
2022/03/07 13:30:10;;;;;;;6.57;5.97;;;;;;;;;;521405;28;1195;-75
2022/03/07 13:30:32;;;;;;;6.60;6.00;;;;;;;;;;519593;28;903;-75
2022/03/07 13:30:50;;;;;;;6.78;6.05;;;;;;;;;;519732;28;966;-75
2022/03/07 13:31:08;;;;;;;7.07;6.38;;;;;;;;;;519802;28;729;-75
2022/03/07 13:31:24;;;;;;;7.15;6.45;;;;;;;;;;517293;28;1483;-76
2022/03/07 13:32:12;;;;;;;6.77;6.07;;;;;;;;;;518855;28;573;-76
2022/03/07 13:32:32;;;;;;;7.03;6.18;;;;;;;;;;518617;28;1465;-76
2022/03/07 13:32:48;;;;;;;7.13;6.43;;;;;;;;;;519426;28;1421;-76
2022/03/07 13:33:05;;;;;;;7.00;6.30;;;;;;;;;;519258;28;1251;-76
2022/03/07 13:33:20;;;;;;;6.72;6.03;;;;;;;;;;519243;28;1262;-75
2022/03/07 13:33:36;;;;;;;6.80;6.10;;;;;;;;;;520071;28;796;-75
2022/03/07 13:33:58;;;;;;;6.83;6.13;;;;;;;;;;519945;28;812;-76
2022/03/07 13:34:19;;;;;;;6.63;6.00;;;;;;;;;;521551;28;820;-76
2022/03/07 13:34:50;;;;;;;6.82;6.13;;;;;;;;;;521308;28;883;-76
2022/03/07 13:35:20;;;;;;;7.00;6.05;;;;;;;;;;521727;28;1111;-76
2022/03/07 13:35:38;;;;;;;6.82;6.00;;;;;;;;;;525856;28;1030;-76
2022/03/07 13:35:54;;;;;;;7.18;5.82;;;;;;;;;;523639;28;799;-76
2022/03/07 13:36:12;;;;;;;7.03;6.03;;;;;;;;;;523794;28;629;-75
2022/03/07 13:36:39;;;;;;;6.78;6.07;;;;;;;;;;524049;28;863;-75
2022/03/07 13:36:56;;;;;;;6.53;5.70;;;;;;;;;;521925;28;1267;-75
2022/03/07 13:37:19;;;;;;;6.50;5.80;;;;;;;;;;520396;28;1225;-75
2022/03/07 13:37:44;;;;;;;6.90;6.10;;;;;;;;;;521611;28;1004;-75
2022/03/07 13:38:00;;;;;;;6.50;5.90;;;;;;;;;;517524;28;1429;-75
2022/03/07 13:38:22;;;;;;;6.50;5.83;;;;;;;;;;517709;28;732;-75
2022/03/07 13:38:38;;;;;;;7.05;6.20;;;;;;;;;;517782;28;792;-76
2022/03/07 13:38:53;;;;;;;6.72;6.03;;;;;;;;;;517581;28;836;-75
2022/03/07 13:39:27;;;;;;;6.70;6.10;;;;;;;;;;518803;28;1945;-76
2022/03/07 13:39:43;;;;;;;6.47;5.88;;;;;;;;;;519170;28;1264;-76
2022/03/07 13:40:16;;;;;;;6.90;6.20;;;;;;;;;;521606;28;855;-75
2022/03/07 13:40:36;;;;;;;6.40;5.77;;;;;;;;;;522435;28;847;-75
2022/03/07 13:40:51;;;;;;;6.60;6.00;;;;;;;;;;523617;28;823;-76
2022/03/07 13:41:08;;;;;;;6.60;6.00;;;;;;;;;;523941;28;874;-76
2022/03/07 13:41:23;;;;;;;7.45;6.10;;;;;;;;;;523302;28;870;-76
2022/03/07 13:42:15;;;;;;;7.73;6.17;;;;;;;;;;524004;28;749;-76
2022/03/07 13:42:40;;;;;;;6.70;6.10;;;;;;;;;;517379;28;894;-75
2022/03/07 13:42:55;;;;;;;7.03;6.40;;;;;;;;;;520734;28;1160;-73
2022/03/07 13:43:10;;;;;;;7.13;6.28;;;;;;;;;;523911;28;791;-74
2022/03/07 13:43:27;;;;;;;6.87;6.17;;;;;;;;;;523170;28;1034;-74
2022/03/07 13:43:42;;;;;;;6.82;6.22;;;;;;;;;;523748;28;1322;-74
2022/03/07 13:44:07;;;;;;;6.80;6.15;;;;;;;;;;523755;28;958;-73
2022/03/07 13:44:23;;;;;;;7.47;6.30;;;;;;;;;;521546;28;1283;-74
2022/03/07 13:44:53;;;;;;;7.00;6.30;;;;;;;;;;521921;28;956;-74
2022/03/07 13:45:13;;;;;;;8.30;6.28;;;;;;;;;;521355;28;1256;-74
2022/03/07 13:45:31;;;;;;;6.70;6.10;;;;;;;;;;520654;28;1687;-74
2022/03/07 13:45:46;;;;;;;6.80;6.20;;;;;;;;;;521473;28;998;-74
2022/03/07 13:46:11;;;;;;;6.70;6.07;;;;;;;;;;521408;28;752;-74
2022/03/07 13:46:27;;;;;;;7.05;6.10;;;;;;;;;;521578;28;1328;-74
2022/03/07 13:47:02;;;;;;;7.03;6.28;;;;;;;;;;521682;28;748;-74
2022/03/07 13:47:21;;;;;;;7.10;6.43;;;;;;;;;;519396;28;1191;-74
2022/03/07 13:47:37;;;;;;;7.32;6.40;;;;;;;;;;518953;28;800;-74
2022/03/07 13:47:55;;;;;;;6.82;6.13;;;;;;;;;;519131;28;1942;-74
2022/03/07 13:48:12;;;;;;;9.05;6.32;;;;;;;;;;520882;28;1452;-74
2022/03/07 13:48:27;;;;;;;9.20;6.60;;;;;;;;;;522284;28;780;-74
2022/03/07 13:48:43;;;;;;;7.73;6.30;;;;;;;;;;523125;28;1005;-75
2022/03/07 13:49:04;;;;;;;7.00;6.10;;;;;;;;;;523343;28;914;-74
2022/03/07 13:49:20;;;;;;;7.05;6.35;;;;;;;;;;521807;28;1372;-74
2022/03/07 13:49:45;;;;;;;7.47;6.32;;;;;;;;;;519832;28;1183;-74
2022/03/07 13:50:10;;;;;;;6.97;6.30;;;;;;;;;;519334;28;799;-74
2022/03/07 13:50:26;;;;;;;7.32;6.32;;;;;;;;;;519425;28;1255;-74
2022/03/07 13:50:47;;;;;;;6.85;6.15;;;;;;;;;;519510;28;823;-74
2022/03/07 13:51:02;;;;;;;7.57;6.22;;;;;;;;;;519274;28;874;-74
2022/03/07 13:51:17;;;;;;;7.40;6.37;;;;;;;;;;519095;28;1153;-74
2022/03/07 13:51:33;;;;;;;7.50;6.17;;;;;;;;;;520866;28;863;-74
2022/03/07 13:51:48;;;;;;;7.57;6.28;;;;;;;;;;521153;28;780;-74
2022/03/07 13:52:22;;;;;;;6.90;6.20;;;;;;;;;;521700;28;865;-74
2022/03/07 13:52:39;;;;;;;7.20;6.30;;;;;;;;;;523643;28;802;-74
2022/03/07 13:53:14;;;;;;;7.00;6.32;;;;;;;;;;521439;28;1408;-74
2022/03/07 13:53:31;;;;;;;7.25;6.35;;;;;;;;;;519667;28;893;-74
2022/03/07 13:53:57;;;;;;;7.00;6.28;;;;;;;;;;517131;28;1410;-74
2022/03/07 13:54:13;;;;;;;7.10;6.40;;;;;;;;;;517503;28;772;-74
2022/03/07 13:54:36;;;;;;;7.35;6.45;;;;;;;;;;517659;28;845;-74
2022/03/07 13:54:54;;;;;;;7.45;6.43;;;;;;;;;;518694;28;808;-74
2022/03/07 13:55:19;;;;;;;7.07;6.38;;;;;;;;;;517392;28;1235;-74
2022/03/07 13:55:43;;;;;;;7.50;6.80;;;;;;;;;;518663;28;992;-75
2022/03/07 13:56:00;;;;;;;7.25;6.55;;;;;;;;;;515001;28;1267;-74
2022/03/07 13:56:15;;;;;;;6.80;6.20;;;;;;;;;;519356;28;1154;-74
2022/03/07 13:56:31;;;;;;;7.03;6.30;;;;;;;;;;520764;28;1557;-74
2022/03/07 13:56:46;;;;;;;7.30;6.30;;;;;;;;;;519437;28;1309;-74
2022/03/07 13:57:03;;;;;;;7.10;6.40;;;;;;;;;;520341;28;619;-74
2022/03/07 13:57:19;;;;;;;7.00;6.30;;;;;;;;;;521703;28;861;-74
2022/03/07 13:57:35;;;;;;;7.90;6.43;;;;;;;;;;521920;28;762;-74
2022/03/07 13:57:55;;;;;;;8.50;6.53;;;;;;;;;;522435;28;886;-74
2022/03/07 13:58:24;;;;;;;7.35;6.57;;;;;;;;;;521700;28;1118;-74
2022/03/07 13:58:39;;;;;;;7.00;6.30;;;;;;;;;;523916;28;1365;-74
2022/03/07 13:58:54;;;;;;;7.10;6.33;;;;;;;;;;525301;28;1452;-74
2022/03/07 13:59:14;;;;;;;7.15;6.45;;;;;;;;;;524293;28;1977;-74
2022/03/07 13:59:29;;;;;;;7.20;6.50;;;;;;;;;;523691;28;834;-74
2022/03/07 14:00:14;;;;;;;6.80;6.20;;;;;;;;;;525319;28;859;-74
2022/03/07 14:00:30;;;;;;;7.13;6.38;;;;;;;;;;522255;28;1292;-74
2022/03/07 14:00:46;;;;;;;7.00;6.30;;;;;;;;;;522825;28;1512;-74
2022/03/07 14:01:09;;;;;;;7.05;6.35;;;;;;;;;;521621;28;1358;-74
2022/03/07 14:01:29;;;;;;;7.28;6.57;;;;;;;;;;521230;28;787;-74
2022/03/07 14:01:44;;;;;;;7.03;6.32;;;;;;;;;;519872;28;1348;-74
2022/03/07 14:01:59;;;;;;;7.17;6.43;;;;;;;;;;519658;28;846;-74
2022/03/07 14:02:16;;;;;;;8.27;6.60;;;;;;;;;;519187;28;1188;-74
2022/03/07 14:02:31;;;;;;;8.48;6.63;;;;;;;;;;521929;28;926;-74
2022/03/07 14:02:49;;;;;;;7.50;6.30;;;;;;;;;;523941;28;710;-76
2022/03/07 14:03:06;;;;;;;6.93;6.22;;;;;;;;;;523725;28;1516;-76
2022/03/07 14:03:25;;;;;;;7.15;6.43;;;;;;;;;;523498;28;1210;-76
2022/03/07 14:03:42;;;;;;;7.15;6.45;;;;;;;;;;524806;28;1254;-77
2022/03/07 14:03:57;;;;;;;7.32;6.35;;;;;;;;;;521612;28;1479;-76
2022/03/07 14:04:15;;;;;;;7.00;6.30;;;;;;;;;;521317;28;678;-76
2022/03/07 14:04:30;;;;;;;6.95;6.32;;;;;;;;;;521698;28;800;-77
2022/03/07 14:05:00;;;;;;;7.20;6.50;;;;;;;;;;521380;28;792;-77
2022/03/07 14:05:18;;;;;;;7.45;6.15;;;;;;;;;;521344;28;772;-76
2022/03/07 14:05:46;;;;;;;7.78;6.30;;;;;;;;;;519662;28;1215;-77
2022/03/07 14:06:03;;;;;;;7.20;6.50;;;;;;;;;;519449;28;2238;-76
2022/03/07 14:06:19;;;;;;;6.82;6.20;;;;;;;;;;519307;28;831;-77
2022/03/07 14:06:34;;;;;;;7.03;6.25;;;;;;;;;;519823;28;815;-77
2022/03/07 14:07:01;;;;;;;7.37;6.50;;;;;;;;;;519420;28;993;-77
2022/03/07 14:07:19;;;;;;;7.40;6.60;;;;;;;;;;519598;28;1187;-77
2022/03/07 14:07:35;;;;;;;7.00;6.30;;;;;;;;;;519814;28;1175;-76
2022/03/07 14:07:55;;;;;;;7.13;6.43;;;;;;;;;;520285;28;993;-77
2022/03/07 14:08:10;;;;;;;7.00;6.25;;;;;;;;;;522047;28;815;-77